• Join FlightAware (Why Join?)
  • Login
  • US Flag 
11:07AM EST


 

Airport Tracker/Info


-or-


 

Live Flight TrackerFlight Track Log ✈ CSN6818 ✈ 26-Aug-2014 ✈ ZWTN / HTN - ZWWW / URC

Flight Track Log - Related Links

Times and Time Zones

All times are in EDT time to prevent confusion due to time zone crossing. See the CSN6818 flight status page for this flight to view local times or setup timezone preferences in your user account.

Time Position Orientation Groundspeed Altitude Reporting Facility
EDT Latitude Longitude Course Direction KTS MPH feet Rate Location/Type
12:00AM 37.7178 80.5306 38° Northeast  Level Estimated
12:01AM 37.8145 80.6266 38° Northeast  Level Estimated
12:02AM 37.9112 80.7230 38° Northeast  Level Estimated
12:03AM 38.0078 80.8196 38° Northeast  Level Estimated
12:04AM 38.1043 80.9164 38° Northeast  Level Estimated
12:05AM 38.2007 81.0135 38° Northeast  Level Estimated
12:06AM 38.2970 81.1108 38° Northeast  Level Estimated
12:07AM 38.3933 81.2085 38° Northeast  Level Estimated
12:08AM 38.4895 81.3063 39° Northeast  Level Estimated
12:09AM 38.5855 81.4045 39° Northeast  Level Estimated
12:10AM 38.6816 81.5029 39° Northeast  Level Estimated
12:11AM 38.7775 81.6015 39° Northeast  Level Estimated
12:12AM 38.8733 81.7005 39° Northeast  Level Estimated
12:13AM 38.9691 81.7997 39° Northeast  Level Estimated
12:14AM 39.0648 81.8991 39° Northeast  Level Estimated
12:15AM 39.1604 81.9988 39° Northeast  Level Estimated
12:16AM 39.2559 82.0988 39° Northeast  Level Estimated
12:17AM 39.3513 82.1991 39° Northeast  Level Estimated
12:18AM 39.4466 82.2997 39° Northeast  Level Estimated
12:19AM 39.5419 82.4005 39° Northeast  Level Estimated
12:20AM 39.6371 82.5016 39° Northeast  Level Estimated
12:21AM 39.7321 82.6030 39° Northeast  Level Estimated
12:22AM 39.8271 82.7047 39° Northeast  Level Estimated
12:23AM 39.9220 82.8066 39° Northeast  Level Estimated
12:24AM 40.0168 82.9088 40° Northeast  Level Estimated
12:25AM 40.1115 83.0113 40° Northeast  Level Estimated
12:26AM 40.2062 83.1141 40° Northeast  Level Estimated
12:27AM 40.3007 83.2172 40° Northeast  Level Estimated
12:28AM 40.3951 83.3206 40° Northeast  Level Estimated
12:29AM 40.4895 83.4243 40° Northeast  Level Estimated
12:30AM 40.5838 83.5282 40° Northeast  Level Estimated
12:31AM 40.6779 83.6325 40° Northeast  Level Estimated
12:32AM 40.7720 83.7370 40° Northeast  Level Estimated
12:33AM 40.8660 83.8418 40° Northeast  Level Estimated
12:34AM 40.9598 83.9470 40° Northeast  Level Estimated
12:35AM 41.0536 84.0524 40° Northeast  Level Estimated
12:36AM 41.1473 84.1581 40° Northeast  Level Estimated
12:37AM 41.2409 84.2642 40° Northeast  Level Estimated
12:38AM 41.3344 84.3705 40° Northeast  Level Estimated
12:39AM 41.4278 84.4772 41° Northeast  Level Estimated
12:40AM 41.5211 84.5841 41° Northeast  Level Estimated
12:41AM 41.6143 84.6914 41° Northeast  Level Estimated
12:42AM 41.7074 84.7990 41° Northeast  Level Estimated
12:43AM 41.8004 84.9069 41° Northeast  Level Estimated
12:44AM 41.8933 85.0151 41° Northeast  Level Estimated
12:45AM 41.9861 85.1236 41° Northeast  Level Estimated
12:46AM 42.0788 85.2324 41° Northeast  Level Estimated
12:47AM 42.1714 85.3416 41° Northeast  Level Estimated
12:48AM 42.2639 85.4510 41° Northeast  Level Estimated
12:49AM 42.3562 85.5608 41° Northeast  Level Estimated
12:50AM 42.4485 85.6709 41° Northeast  Level Estimated
12:51AM 42.5407 85.7814 41° Northeast  Level Estimated
12:52AM 42.6327 85.8921 41° Northeast  Level Estimated
12:53AM 42.7247 86.0032 42° Northeast  Level Estimated
12:54AM 42.8166 86.1147 42° Northeast  Level Estimated
12:55AM 42.9083 86.2264 42° Northeast  Level Estimated
12:56AM 42.9999 86.3385 42° Northeast  Level Estimated
12:57AM 43.0914 86.4509 42° Northeast  Level Estimated
12:58AM 43.1828 86.5637 42° Northeast  Level Estimated
12:59AM 43.2742 86.6768 42° Northeast  Level Estimated
01:00AM 43.3653 86.7902 42° Northeast  Level Estimated
01:01AM 43.4564 86.9040 42° Northeast  Level Estimated
01:02AM 43.5474 87.0181 42° Northeast  Level Estimated
01:03AM 43.6382 87.1326 42° Northeast  Level Estimated
01:04AM 43.7290 87.2474 42° Northeast  Level Estimated
01:05AM 43.8196 87.3625 43° Northeast  Level Estimated
01:06AM 43.9071 87.4742 43° Northeast  Level Estimated
01:07AM 43.9071 87.4742 North  Level Estimated
01:08AM 43.9071 87.4742 North  Level Estimated
01:09AM 43.9071 87.4742 North  Level Estimated
01:10AM 43.9071 87.4742 North  Level Estimated
01:11AM 43.9071 87.4742 North  Level Estimated
01:12AM 43.9071 87.4742 North  Level Estimated
01:13AM 43.9071 87.4742 North  Level Estimated
01:14AM 43.9071 87.4742 North  Level Estimated
01:15AM 43.9071 87.4742 North  Level Estimated
01:16AM 43.9071 87.4742 North  Level Estimated
01:17AM 43.9071 87.4742 North  Level Estimated
01:18AM 43.9071 87.4742 North  Level Estimated
01:19AM 43.9071 87.4742 North  Level Estimated
01:20AM 43.9071 87.4742 North  Level Estimated
01:21AM 43.9071 87.4742 North  Level Estimated
01:22AM 43.9071 87.4742 North  Level Estimated